createdAt,value
2022-09-10T00:01:36.482Z,17.70
2022-09-10T00:04:10.987Z,16.80
2022-09-10T00:06:39.911Z,16.80
2022-09-10T00:09:08.931Z,16.40
2022-09-10T00:11:40.849Z,18.10
2022-09-10T00:14:17.340Z,21.10
2022-09-10T00:16:45.735Z,19.90
2022-09-10T00:19:15.105Z,17.60
2022-09-10T00:21:46.760Z,19.20
2022-09-10T00:24:14.799Z,19.60
2022-09-10T00:26:42.870Z,18.30
2022-09-10T00:29:12.787Z,19.10
2022-09-10T00:31:40.861Z,17.80
2022-09-10T00:34:11.498Z,19.40
2022-09-10T00:36:41.891Z,14.90
2022-09-10T00:39:13.848Z,19.10
2022-09-10T00:41:44.487Z,18.00
2022-09-10T00:44:39.664Z,18.60
2022-09-10T00:47:21.836Z,16.40
2022-09-10T00:49:56.818Z,16.40
2022-09-10T00:52:25.440Z,14.60
2022-09-10T00:54:54.643Z,14.80
2022-09-10T00:57:24.302Z,14.60
2022-09-10T00:59:56.320Z,18.10
2022-09-10T01:02:25.440Z,14.80
2022-09-10T01:04:55.546Z,13.80
2022-09-10T01:07:29.287Z,13.50
2022-09-10T01:10:08.529Z,13.60
2022-09-10T01:13:01.561Z,11.80
2022-09-10T01:15:46.607Z,14.40
2022-09-10T01:19:09.927Z,15.10
2022-09-10T01:22:14.052Z,11.60
2022-09-10T01:25:06.982Z,11.80
2022-09-10T01:27:37.657Z,13.10
2022-09-10T01:30:18.094Z,12.10
2022-09-10T01:32:57.025Z,10.20
2022-09-10T01:35:44.992Z,10.70
2022-09-10T01:38:23.014Z,9.40
2022-09-10T01:40:54.850Z,9.40
2022-09-10T01:43:24.646Z,9.50
2022-09-10T01:46:33.672Z,11.20
2022-09-10T01:49:36.895Z,11.00
2022-09-10T01:52:26.561Z,10.50
2022-09-10T01:55:34.404Z,12.00
2022-09-10T01:58:21.516Z,9.90
2022-09-10T02:01:11.111Z,9.70
2022-09-10T02:03:42.216Z,10.40
2022-09-10T02:06:14.870Z,11.80
2022-09-10T02:08:46.924Z,9.70
2022-09-10T02:11:16.016Z,8.90
2022-09-10T02:13:52.619Z,13.50
2022-09-10T02:16:47.300Z,11.70
2022-09-10T02:19:17.275Z,10.00
2022-09-10T02:21:54.231Z,10.20
2022-09-10T02:24:22.892Z,12.20
2022-09-10T02:26:51.219Z,10.60
2022-09-10T02:29:19.503Z,11.90
2022-09-10T02:31:47.615Z,10.50
2022-09-10T02:34:18.433Z,14.10
2022-09-10T02:36:48.151Z,13.60
2022-09-10T02:39:16.506Z,12.40
2022-09-10T02:41:48.183Z,14.00
2022-09-10T02:44:16.569Z,12.90
2022-09-10T02:46:45.362Z,13.60
2022-09-10T02:49:15.149Z,12.90
2022-09-10T02:51:44.809Z,14.50
2022-09-10T02:54:13.070Z,15.90
2022-09-10T02:56:40.961Z,17.30
2022-09-10T02:59:10.324Z,14.20
2022-09-10T03:01:39.009Z,14.30
2022-09-10T03:04:08.346Z,16.00
2022-09-10T03:06:36.908Z,17.90
2022-09-10T03:09:05.615Z,14.80
2022-09-10T03:11:34.897Z,17.20
2022-09-10T03:14:03.108Z,16.50
2022-09-10T03:16:31.119Z,16.80
2022-09-10T03:18:59.465Z,18.70
2022-09-10T03:21:27.573Z,14.30
2022-09-10T03:23:58.336Z,16.40
2022-09-10T03:26:30.635Z,15.30
2022-09-10T03:28:59.236Z,16.00
2022-09-10T03:31:27.432Z,15.00
2022-09-10T03:33:57.918Z,14.70
2022-09-10T03:36:31.367Z,15.70
2022-09-10T03:39:01.188Z,17.60
2022-09-10T03:41:37.312Z,14.00
2022-09-10T03:44:06.528Z,15.40
2022-09-10T03:46:34.528Z,15.60
2022-09-10T03:49:03.520Z,12.90
2022-09-10T03:51:32.030Z,16.00
2022-09-10T03:54:00.682Z,16.60
2022-09-10T03:56:28.693Z,17.00
2022-09-10T03:58:57.519Z,15.70
2022-09-10T04:01:27.538Z,15.40
2022-09-10T04:03:57.099Z,12.90
2022-09-10T04:06:27.111Z,15.20
2022-09-10T04:08:56.392Z,16.80
2022-09-10T04:11:27.827Z,18.00
2022-09-10T04:13:57.454Z,16.90
2022-09-10T04:16:27.552Z,17.50
2022-09-10T04:18:55.778Z,17.10
2022-09-10T04:21:24.645Z,14.90
2022-09-10T04:23:56.443Z,17.90
2022-09-10T04:26:26.406Z,13.20
2022-09-10T04:28:54.569Z,14.70
2022-09-10T04:31:22.952Z,14.60
2022-09-10T04:33:53.786Z,14.90
2022-09-10T04:36:26.089Z,12.40
2022-09-10T04:38:54.409Z,13.10
2022-09-10T04:41:22.308Z,13.60
2022-09-10T04:43:50.883Z,14.50
2022-09-10T04:46:18.934Z,12.80
2022-09-10T04:48:49.476Z,13.00
2022-09-10T04:51:21.486Z,12.00
2022-09-10T04:53:53.146Z,12.80
2022-09-10T04:56:23.968Z,11.70
2022-09-10T04:58:51.961Z,13.80
2022-09-10T05:01:20.552Z,13.20
2022-09-10T05:03:52.621Z,13.00
2022-09-10T05:06:20.797Z,11.30
2022-09-10T05:08:49.612Z,10.10
2022-09-10T05:11:19.935Z,11.30
2022-09-10T05:13:48.174Z,13.10
2022-09-10T05:16:19.420Z,13.00
2022-09-10T05:18:48.896Z,10.90
2022-09-10T05:21:18.488Z,13.20
2022-09-10T05:23:46.617Z,10.60
2022-09-10T05:26:15.016Z,10.20
2022-09-10T05:28:43.472Z,8.20
2022-09-10T05:31:16.806Z,11.80
2022-09-10T05:33:46.471Z,10.10
2022-09-10T05:36:14.877Z,11.20
2022-09-10T05:38:46.011Z,10.40
2022-09-10T05:41:14.744Z,9.50
2022-09-10T05:43:52.058Z,10.50
2022-09-10T05:46:20.349Z,12.10
2022-09-10T05:48:54.433Z,11.10
2022-09-10T05:51:27.817Z,10.20
2022-09-10T05:53:58.195Z,10.80
2022-09-10T05:56:27.285Z,9.30
2022-09-10T05:58:55.118Z,10.40
2022-09-10T06:01:23.409Z,9.60
2022-09-10T06:03:51.690Z,9.70
2022-09-10T06:06:19.712Z,12.00
2022-09-10T06:08:58.163Z,11.10
2022-09-10T06:11:40.528Z,11.70
2022-09-10T06:14:09.526Z,9.20
2022-09-10T06:16:37.952Z,9.60
2022-09-10T06:19:08.462Z,10.30
2022-09-10T06:21:37.875Z,10.50
2022-09-10T06:24:07.386Z,10.10
2022-09-10T06:26:38.501Z,14.20
2022-09-10T06:29:11.784Z,11.10
2022-09-10T06:31:42.978Z,13.90
2022-09-10T06:34:13.527Z,10.70
2022-09-10T06:36:42.179Z,12.50
2022-09-10T06:39:10.965Z,10.20
2022-09-10T06:41:49.836Z,12.30
2022-09-10T06:44:36.763Z,9.90
2022-09-10T06:50:03.828Z,13.40
2022-09-10T06:52:35.652Z,13.50
2022-09-10T06:55:06.613Z,10.60
2022-09-10T06:57:40.477Z,11.80
2022-09-10T07:00:09.758Z,10.40
2022-09-10T07:02:38.293Z,12.20
2022-09-10T07:05:08.257Z,11.70
2022-09-10T07:07:38.042Z,13.00
2022-09-10T07:10:08.233Z,12.80
2022-09-10T07:12:36.461Z,14.10
2022-09-10T07:15:06.770Z,14.20
2022-09-10T07:17:36.225Z,19.70
2022-09-10T07:20:04.986Z,14.60
2022-09-10T07:22:44.130Z,15.10
2022-09-10T07:25:14.173Z,10.80
2022-09-10T07:27:54.483Z,11.60
2022-09-10T07:30:22.718Z,11.40
2022-09-10T07:32:52.273Z,11.80
2022-09-10T07:35:25.354Z,12.70
2022-09-10T07:37:54.488Z,13.30
2022-09-10T07:40:23.563Z,12.60
2022-09-10T07:42:52.753Z,12.80
2022-09-10T07:45:21.511Z,15.90
2022-09-10T07:47:50.019Z,11.90
2022-09-10T07:50:19.516Z,14.70
2022-09-10T07:52:52.812Z,14.00
2022-09-10T07:55:23.570Z,21.60
2022-09-10T07:57:52.283Z,12.90
2022-09-10T08:00:20.479Z,11.30
2022-09-10T08:02:50.725Z,10.50
2022-09-10T08:05:20.469Z,10.00
2022-09-10T08:07:54.410Z,12.90
2022-09-10T08:10:22.924Z,9.90
2022-09-10T08:12:51.209Z,10.10
2022-09-10T08:15:19.548Z,10.20
2022-09-10T08:17:48.038Z,11.10
2022-09-10T08:20:16.204Z,10.40
2022-09-10T08:22:45.223Z,10.50
2022-09-10T08:25:14.879Z,9.30
2022-09-10T08:27:42.962Z,10.80
2022-09-10T08:30:12.738Z,10.20
2022-09-10T08:32:42.160Z,10.00
2022-09-10T08:35:10.428Z,10.80
2022-09-10T08:37:38.280Z,11.10
2022-09-10T08:40:12.034Z,9.30
2022-09-10T08:42:47.137Z,11.00
2022-09-10T08:45:31.218Z,9.90
2022-09-10T08:48:22.128Z,13.20
2022-09-10T08:50:58.139Z,12.20
2022-09-10T08:53:32.767Z,12.40
2022-09-10T08:56:10.401Z,11.70
2022-09-10T08:58:47.417Z,10.80
2022-09-10T09:01:30.909Z,11.80
2022-09-10T09:29:34.875Z,14.90
2022-09-10T09:32:16.112Z,12.70
2022-09-10T09:34:50.617Z,12.20
2022-09-10T09:37:30.257Z,10.30
2022-09-10T09:40:21.341Z,10.80
2022-09-10T09:42:58.689Z,10.90
2022-09-10T09:45:37.760Z,11.10
2022-09-10T09:48:07.664Z,10.90
2022-09-10T09:50:55.077Z,11.90
2022-09-10T09:53:29.206Z,10.60
2022-09-10T09:56:01.053Z,11.40
2022-09-10T09:58:34.835Z,9.90
2022-09-10T10:01:14.691Z,10.60
2022-09-10T10:03:48.727Z,10.60
2022-09-10T10:06:17.522Z,10.40
2022-09-10T10:09:04.807Z,12.30
2022-09-10T10:11:51.505Z,12.60
2022-09-10T10:14:20.598Z,12.40
2022-09-10T10:16:52.186Z,11.60
2022-09-10T10:19:29.424Z,11.80
2022-09-10T10:21:59.873Z,11.60
2022-09-10T10:24:34.158Z,12.90
2022-09-10T10:27:02.419Z,11.40
2022-09-10T10:29:31.013Z,11.20
2022-09-10T10:32:05.454Z,12.30
2022-09-10T10:34:54.184Z,13.00
2022-09-10T10:37:43.940Z,12.10
2022-09-10T10:40:23.783Z,11.50
2022-09-10T10:43:21.323Z,10.40
2022-09-10T10:46:08.815Z,10.10
2022-09-10T10:48:57.760Z,11.80
2022-09-10T10:51:50.832Z,10.30
2022-09-10T10:54:37.603Z,11.90
2022-09-10T10:57:20.302Z,10.20
2022-09-10T11:00:12.483Z,10.00
2022-09-10T11:03:02.513Z,12.00
2022-09-10T11:05:37.707Z,12.60
2022-09-10T11:08:15.293Z,12.10
2022-09-10T11:10:50.655Z,10.60
2022-09-10T11:13:27.354Z,10.10
2022-09-10T11:16:04.416Z,10.50
2022-09-10T11:18:43.798Z,11.80
2022-09-10T11:21:34.876Z,9.00
2022-09-10T11:24:47.592Z,10.40
2022-09-10T11:27:33.369Z,9.60
2022-09-10T11:30:04.735Z,10.50
2022-09-10T11:32:40.214Z,12.10
2022-09-10T11:35:29.543Z,12.90
2022-09-10T11:38:12.858Z,11.60
2022-09-10T11:40:56.346Z,13.50
2022-09-10T11:43:30.709Z,12.60
2022-09-10T11:46:04.777Z,13.80
2022-09-10T11:48:48.473Z,12.00
2022-09-10T11:51:24.535Z,12.80
2022-09-10T11:53:55.054Z,19.80
2022-09-10T11:56:38.336Z,11.90
2022-09-10T11:59:44.094Z,12.40
2022-09-10T12:02:24.511Z,12.40
2022-09-10T12:05:07.158Z,13.10
2022-09-10T12:07:53.953Z,14.00
2022-09-10T12:11:01.184Z,13.90
2022-09-10T12:13:29.970Z,13.70
2022-09-10T12:16:16.034Z,11.80
2022-09-10T12:18:49.139Z,12.00
2022-09-10T12:21:38.168Z,11.60
2022-09-10T12:24:31.634Z,13.40
2022-09-10T12:27:05.437Z,12.60
2022-09-10T12:29:37.903Z,14.20
2022-09-10T12:32:09.003Z,14.00
2022-09-10T12:34:38.220Z,12.30
2022-09-10T12:37:07.939Z,14.70
2022-09-10T12:39:36.053Z,14.30
2022-09-10T12:42:34.418Z,14.60
2022-09-10T12:45:02.485Z,12.60
2022-09-10T12:47:40.162Z,15.00
2022-09-10T12:50:27.167Z,15.30
2022-09-10T12:53:13.789Z,13.80
2022-09-10T12:56:02.255Z,16.30
2022-09-10T12:59:04.063Z,14.20
2022-09-10T13:02:02.435Z,16.10
2022-09-10T13:04:37.377Z,15.30
2022-09-10T13:07:21.263Z,17.80
2022-09-10T13:10:23.676Z,16.60
2022-09-10T13:12:55.933Z,15.60
2022-09-10T13:15:30.157Z,16.60
2022-09-10T13:22:32.098Z,16.70
2022-09-10T13:25:43.252Z,17.20
2022-09-10T13:28:30.500Z,19.50
2022-09-10T13:31:25.366Z,16.70
2022-09-10T13:33:57.020Z,17.30
2022-09-10T13:36:30.385Z,18.00
2022-09-10T13:39:28.792Z,19.50
2022-09-10T13:42:18.474Z,20.30
2022-09-10T13:45:31.449Z,20.40
2022-09-10T13:48:02.093Z,19.20
2022-09-10T13:50:39.260Z,19.30
2022-09-10T13:53:27.927Z,18.40
2022-09-10T13:56:14.448Z,18.40
2022-09-10T13:58:49.681Z,17.50
2022-09-10T14:01:18.126Z,16.50
2022-09-10T14:03:46.192Z,19.20
2022-09-10T14:06:22.471Z,18.50
2022-09-10T14:08:53.387Z,17.10
2022-09-10T14:11:37.640Z,18.30
2022-09-10T14:14:11.664Z,15.40
2022-09-10T14:16:49.983Z,16.50
2022-09-10T14:19:30.018Z,16.90
2022-09-10T14:21:58.520Z,14.00
2022-09-10T14:24:35.732Z,18.00
2022-09-10T14:27:19.688Z,16.80
2022-09-10T14:29:47.857Z,14.30
2022-09-10T14:32:34.480Z,12.60
2022-09-10T14:35:37.626Z,22.40
2022-09-10T14:38:48.035Z,14.50
2022-09-10T14:41:24.814Z,11.60
2022-09-10T14:44:22.271Z,12.80
2022-09-10T14:46:58.971Z,13.20
2022-09-10T14:49:40.425Z,11.60
2022-09-10T14:52:12.031Z,13.20
2022-09-10T14:54:40.466Z,12.10
2022-09-10T14:57:17.199Z,11.30
2022-09-10T14:59:50.270Z,11.30
2022-09-10T15:02:27.235Z,11.70
2022-09-10T15:04:55.937Z,12.20
2022-09-10T15:07:27.600Z,10.70
2022-09-10T15:10:14.421Z,10.60
2022-09-10T15:12:47.466Z,12.80
2022-09-10T15:15:17.865Z,11.00
2022-09-10T15:17:45.855Z,11.70
2022-09-10T15:20:17.181Z,14.20
2022-09-10T15:22:45.471Z,14.60
2022-09-10T15:25:33.910Z,13.70
2022-09-10T15:28:06.207Z,16.30
2022-09-10T15:30:36.062Z,11.60
2022-09-10T15:33:06.111Z,14.10
2022-09-10T15:35:34.120Z,12.20
2022-09-10T15:38:04.183Z,10.70
2022-09-10T15:40:32.091Z,11.00
2022-09-10T15:43:00.064Z,16.30
2022-09-10T15:45:28.415Z,13.20
2022-09-10T15:47:56.521Z,16.10
2022-09-10T15:50:24.630Z,14.50
2022-09-10T15:52:52.492Z,14.30
2022-09-10T15:55:21.610Z,12.30
2022-09-10T15:57:51.476Z,12.20
2022-09-10T16:00:20.361Z,11.10
2022-09-10T16:02:53.272Z,11.80
2022-09-10T16:05:21.660Z,11.50
2022-09-10T16:07:49.696Z,13.00
2022-09-10T16:10:18.039Z,12.40
2022-09-10T16:12:45.990Z,13.00
2022-09-10T16:15:14.197Z,11.80
2022-09-10T16:17:42.476Z,13.90
2022-09-10T16:20:10.509Z,13.10
2022-09-10T16:22:38.821Z,12.20
2022-09-10T16:25:08.865Z,13.30
2022-09-10T16:27:40.429Z,11.90
2022-09-10T16:30:12.489Z,11.00
2022-09-10T16:32:40.902Z,13.10
2022-09-10T16:35:09.662Z,10.90
2022-09-10T16:37:37.674Z,13.00
2022-09-10T16:40:07.291Z,29.80
2022-09-10T16:42:35.195Z,20.90
2022-09-10T16:45:03.224Z,14.20
2022-09-10T16:47:31.209Z,22.10
2022-09-10T16:49:59.155Z,36.30
2022-09-10T16:52:27.083Z,44.60
2022-09-10T16:54:55.802Z,33.10
2022-09-10T16:57:23.940Z,20.80
2022-09-10T16:59:52.733Z,19.90
2022-09-10T17:02:20.667Z,20.50
2022-09-10T17:04:48.668Z,19.50
2022-09-10T17:07:16.464Z,19.00
2022-09-10T17:09:44.500Z,20.50
2022-09-10T17:12:12.612Z,18.70
2022-09-10T17:14:40.960Z,52.60
2022-09-10T17:17:10.028Z,84.20
2022-09-10T17:19:38.003Z,52.00
2022-09-10T17:22:06.642Z,29.20
2022-09-10T17:24:34.614Z,19.80
2022-09-10T17:27:02.721Z,18.30
2022-09-10T17:29:33.096Z,32.00
2022-09-10T17:32:01.257Z,20.60
2022-09-10T17:34:29.373Z,23.40
2022-09-10T17:36:57.541Z,22.40
2022-09-10T17:39:28.584Z,18.10
2022-09-10T17:41:57.484Z,19.30
2022-09-10T17:44:25.951Z,20.20
2022-09-10T17:46:55.277Z,28.80
2022-09-10T17:49:24.095Z,22.80
2022-09-10T17:51:58.625Z,18.00
2022-09-10T17:54:26.732Z,18.40
2022-09-10T17:56:54.781Z,19.70
2022-09-10T17:59:24.701Z,19.00
2022-09-10T18:01:54.061Z,20.20
2022-09-10T18:04:22.167Z,22.90
2022-09-10T18:06:52.512Z,36.90
2022-09-10T18:09:21.869Z,67.20
2022-09-10T18:11:50.477Z,26.80
2022-09-10T18:14:19.910Z,25.70
2022-09-10T18:16:48.001Z,22.70
2022-09-10T18:19:18.020Z,20.40
2022-09-10T18:21:47.406Z,19.30
2022-09-10T18:24:22.659Z,40.30
2022-09-10T18:26:54.021Z,39.40
2022-09-10T18:29:30.252Z,64.60
2022-09-10T18:32:02.102Z,41.10
2022-09-10T18:34:31.137Z,24.80
2022-09-10T18:37:01.171Z,24.90
2022-09-10T18:39:31.312Z,25.00
2022-09-10T18:42:01.222Z,28.00
2022-09-10T18:44:35.435Z,27.00
2022-09-10T18:47:14.239Z,24.90
2022-09-10T18:49:50.717Z,23.20
2022-09-10T18:52:18.832Z,26.40
2022-09-10T18:54:46.859Z,25.50
2022-09-10T18:57:14.861Z,25.70
2022-09-10T18:59:42.988Z,23.10
2022-09-10T19:02:13.107Z,26.10
2022-09-10T19:04:54.652Z,21.40
2022-09-10T19:07:29.665Z,20.30
2022-09-10T19:09:57.875Z,17.60
2022-09-10T19:12:26.492Z,20.10
2022-09-10T19:14:54.766Z,20.30
2022-09-10T19:17:22.993Z,21.70
2022-09-10T19:19:51.023Z,16.50
2022-09-10T19:22:19.619Z,19.80
2022-09-10T19:24:55.768Z,20.20
2022-09-10T19:27:24.891Z,19.40
2022-09-10T19:29:53.988Z,18.00
2022-09-10T19:32:22.085Z,21.90
2022-09-10T19:34:51.426Z,17.60
2022-09-10T19:37:19.984Z,20.00
2022-09-10T19:39:48.355Z,18.10
2022-09-10T19:42:17.350Z,22.70
2022-09-10T19:44:45.244Z,20.60
2022-09-10T19:47:13.123Z,19.40
2022-09-10T19:49:43.531Z,21.70
2022-09-10T19:52:11.473Z,20.60
2022-09-10T19:54:39.970Z,20.90
2022-09-10T19:57:08.291Z,20.40
2022-09-10T19:59:36.225Z,19.30
2022-09-10T20:02:04.405Z,18.10
2022-09-10T20:04:33.252Z,19.90
2022-09-10T20:07:01.456Z,19.80
2022-09-10T20:09:29.642Z,21.10
2022-09-10T20:11:57.865Z,19.50
2022-09-10T20:14:26.097Z,19.60
2022-09-10T20:17:04.612Z,22.10
2022-09-10T20:19:32.790Z,22.80
2022-09-10T20:22:00.702Z,21.20
2022-09-10T20:24:28.769Z,22.80
2022-09-10T20:26:57.202Z,45.60
2022-09-10T20:29:25.568Z,63.20
2022-09-10T20:31:53.531Z,60.70
2022-09-10T20:34:22.645Z,37.10
2022-09-10T20:36:51.659Z,29.20
2022-09-10T20:39:22.375Z,26.10
2022-09-10T20:41:50.846Z,26.90
2022-09-10T20:44:20.930Z,25.20
2022-09-10T20:46:49.460Z,28.00
2022-09-10T20:49:21.915Z,28.70
2022-09-10T20:52:04.740Z,28.20
2022-09-10T20:54:33.097Z,27.70
2022-09-10T20:57:02.336Z,50.80
2022-09-10T20:59:30.704Z,47.30
2022-09-10T21:01:59.180Z,23.50
2022-09-10T21:04:27.227Z,23.10
2022-09-10T21:06:56.418Z,20.00
2022-09-10T21:09:24.785Z,19.30
2022-09-10T21:11:52.568Z,18.60
2022-09-10T21:14:20.394Z,23.50
2022-09-10T21:16:48.712Z,27.10
2022-09-10T21:19:18.021Z,25.50
2022-09-10T21:21:51.803Z,20.30
2022-09-10T21:24:25.051Z,24.00
2022-09-10T21:26:53.787Z,23.30
2022-09-10T21:29:22.639Z,25.20
2022-09-10T21:31:50.901Z,21.50
2022-09-10T21:34:19.416Z,20.40
2022-09-10T21:36:47.981Z,20.00
2022-09-10T21:39:18.503Z,23.00
2022-09-10T21:41:50.236Z,24.40
2022-09-10T21:44:22.270Z,21.50
2022-09-10T21:46:50.832Z,22.40
2022-09-10T21:49:20.453Z,15.90
2022-09-10T21:51:49.029Z,17.20
2022-09-10T21:54:21.149Z,15.60
2022-09-10T21:56:50.694Z,16.70
2022-09-10T21:59:20.507Z,20.20
2022-09-10T22:01:49.145Z,14.50
2022-09-10T22:04:22.588Z,14.70
2022-09-10T22:06:52.014Z,17.70
2022-09-10T22:09:21.559Z,18.40
2022-09-10T22:11:53.255Z,17.30
2022-09-10T22:14:23.645Z,24.50
2022-09-10T22:16:52.450Z,17.50
2022-09-10T22:19:23.916Z,18.10
2022-09-10T22:21:54.333Z,14.50
2022-09-10T22:24:23.061Z,13.40
2022-09-10T22:26:50.913Z,13.90
2022-09-10T22:29:20.581Z,14.30
2022-09-10T22:31:49.685Z,15.30
2022-09-10T22:34:18.350Z,14.90
2022-09-10T22:36:48.766Z,16.80
2022-09-10T22:39:21.722Z,16.10
2022-09-10T22:41:50.882Z,16.30
2022-09-10T22:44:20.375Z,16.10
2022-09-10T22:46:48.556Z,16.10
2022-09-10T22:49:18.188Z,15.70
2022-09-10T22:51:46.281Z,18.10
2022-09-10T22:54:14.770Z,14.70
2022-09-10T22:56:44.717Z,13.20
2022-09-10T22:59:14.140Z,13.90
2022-09-10T23:01:43.514Z,17.50
2022-09-10T23:04:11.753Z,20.10
2022-09-10T23:06:40.029Z,15.50
2022-09-10T23:09:11.449Z,13.20
2022-09-10T23:11:41.218Z,13.90
2022-09-10T23:14:13.137Z,15.90
2022-09-10T23:16:44.243Z,15.70
2022-09-10T23:19:15.712Z,15.30
2022-09-10T23:21:46.767Z,14.10
2022-09-10T23:24:17.302Z,14.70
2022-09-10T23:26:45.844Z,14.30
2022-09-10T23:29:18.620Z,13.30
2022-09-10T23:31:48.021Z,15.30
2022-09-10T23:34:18.957Z,14.80
2022-09-10T23:36:48.939Z,15.10
2022-09-10T23:39:20.165Z,14.10
2022-09-10T23:41:50.116Z,12.70
2022-09-10T23:44:18.115Z,13.80
2022-09-10T23:46:46.237Z,13.50
2022-09-10T23:49:14.790Z,15.40
2022-09-10T23:51:42.745Z,12.40
2022-09-10T23:54:13.088Z,13.30
2022-09-10T23:56:41.629Z,11.00
2022-09-10T23:59:20.174Z,10.30
